createdAt,value
2022-09-05T00:00:02.712Z,100858.53
2022-09-05T00:02:49.181Z,100852.63
2022-09-05T00:05:32.170Z,100850.47
2022-09-05T00:08:09.176Z,100856.13
2022-09-05T00:11:16.832Z,100855.84
2022-09-05T00:13:37.055Z,100851.53
2022-09-05T00:16:32.222Z,100860.94
2022-09-05T00:24:06.610Z,100846.16
2022-09-05T00:24:37.911Z,100847.22
2022-09-05T00:25:32.426Z,100847.47
2022-09-05T00:28:26.037Z,100847.75
2022-09-05T00:31:54.937Z,100851.50
2022-09-05T00:34:37.758Z,100841.84
2022-09-05T00:37:28.729Z,100838.56
2022-09-05T00:40:17.568Z,100838.03
2022-09-05T00:42:50.177Z,100838.84
2022-09-05T00:45:25.185Z,100837.22
2022-09-05T00:48:00.463Z,100828.06
2022-09-05T00:50:36.061Z,100816.50
2022-09-05T00:53:12.585Z,100816.78
2022-09-05T00:55:47.712Z,100813.53
2022-09-05T00:58:43.669Z,100818.09
2022-09-05T01:01:28.599Z,100814.34
2022-09-05T01:04:12.078Z,100811.66
2022-09-05T01:06:58.608Z,100817.03
2022-09-05T01:09:39.664Z,100813.25
2022-09-05T01:12:20.607Z,100809.50
2022-09-05T01:15:05.168Z,100813.81
2022-09-05T01:17:45.194Z,100813.53
2022-09-05T01:20:34.371Z,100810.59
2022-09-05T01:23:34.421Z,100809.53
2022-09-05T01:26:20.237Z,100807.34
2022-09-05T01:29:15.202Z,100814.91
2022-09-05T01:31:52.229Z,100811.41
2022-09-05T01:34:31.950Z,100806.84
2022-09-05T01:37:26.649Z,100810.63
2022-09-05T01:40:14.668Z,100801.47
2022-09-05T01:42:56.266Z,100803.06
2022-09-05T01:45:42.229Z,100805.75
2022-09-05T01:48:24.180Z,100799.28
2022-09-05T01:51:05.329Z,100800.91
2022-09-05T01:53:57.262Z,100800.91
2022-09-05T01:56:43.134Z,100803.59
2022-09-05T01:59:21.231Z,100801.97
2022-09-05T02:02:11.957Z,100808.97
2022-09-05T02:05:09.866Z,100806.28
2022-09-05T02:08:08.535Z,100810.63
2022-09-05T02:11:08.572Z,100808.19
2022-09-05T02:14:01.368Z,100810.06
2022-09-05T02:16:44.065Z,100808.47
2022-09-05T02:19:20.349Z,100804.69
2022-09-05T02:21:59.013Z,100804.97
2022-09-05T02:24:34.913Z,100801.97
2022-09-05T02:27:40.215Z,100808.72
2022-09-05T02:30:09.550Z,100809.53
2022-09-05T02:32:49.578Z,100798.78
2022-09-05T02:35:26.901Z,100800.91
2022-09-05T02:42:56.391Z,100803.88
2022-09-05T02:45:08.711Z,100803.88
2022-09-05T02:45:10.437Z,100805.75
2022-09-05T02:46:50.984Z,100800.66
2022-09-05T02:51:32.239Z,100794.72
2022-09-05T02:57:30.047Z,100789.59
2022-09-05T02:57:38.341Z,100788.00
2022-09-05T02:58:53.569Z,100794.47
2022-09-05T03:01:37.115Z,100802.53
2022-09-05T03:04:22.685Z,100800.91
2022-09-05T03:07:06.014Z,100798.47
2022-09-05T03:09:49.178Z,100800.38
2022-09-05T03:13:08.456Z,100795.25
2022-09-05T03:16:11.377Z,100800.63
2022-09-05T03:19:09.559Z,100790.66
2022-09-05T03:22:10.121Z,100792.81
2022-09-05T03:25:12.778Z,100791.19
2022-09-05T03:28:25.011Z,100787.72
2022-09-05T03:31:31.577Z,100787.97
2022-09-05T03:34:25.877Z,100789.59
2022-09-05T03:37:39.581Z,100787.19
2022-09-05T03:40:49.064Z,100789.88
2022-09-05T03:43:54.849Z,100790.91
2022-09-05T03:46:38.696Z,100795.50
2022-09-05T03:50:41.516Z,100793.09
2022-09-05T03:57:11.253Z,100786.88
2022-09-05T03:57:19.609Z,100783.41
2022-09-05T03:58:56.504Z,100777.22
2022-09-05T04:03:10.565Z,100781.50
2022-09-05T04:08:24.961Z,100790.66
2022-09-05T04:08:29.180Z,100790.66
2022-09-05T04:10:27.665Z,100786.34
2022-09-05T04:13:01.517Z,100783.63
2022-09-05T04:15:37.049Z,100797.09
2022-09-05T04:18:32.855Z,100792.78
2022-09-05T04:21:06.958Z,100776.38
2022-09-05T04:23:48.810Z,100792.00
2022-09-05T04:26:45.444Z,100783.91
2022-09-05T04:29:21.185Z,100802.75
2022-09-05T04:32:17.698Z,100794.97
2022-09-05T04:35:05.041Z,100793.88
2022-09-05T04:37:48.465Z,100792.28
2022-09-05T04:40:44.009Z,100794.97
2022-09-05T04:43:20.490Z,100794.41
2022-09-05T04:45:54.858Z,100803.31
2022-09-05T04:48:27.655Z,100804.13
2022-09-05T04:51:07.253Z,100808.69
2022-09-05T04:53:42.761Z,100799.78
2022-09-05T04:56:13.233Z,100800.06
2022-09-05T04:59:51.308Z,100800.34
2022-09-05T05:06:14.846Z,100801.94
2022-09-05T05:06:17.745Z,100805.72
2022-09-05T05:07:25.396Z,100802.47
2022-09-05T05:10:39.162Z,100801.94
2022-09-05T05:17:58.944Z,100803.03
2022-09-05T05:18:08.142Z,100813.53
2022-09-05T05:18:57.647Z,100811.63
2022-09-05T05:21:32.729Z,100823.22
2022-09-05T05:24:11.150Z,100822.16
2022-09-05T05:26:56.634Z,100831.03
2022-09-05T05:29:33.757Z,100838.03
2022-09-05T05:32:06.460Z,100830.75
2022-09-05T05:34:38.192Z,100830.47
2022-09-05T05:37:10.041Z,100840.16
2022-09-05T05:39:45.298Z,100839.66
2022-09-05T05:42:20.682Z,100827.56
2022-09-05T05:44:53.741Z,100834.28
2022-09-05T05:47:31.580Z,100838.56
2022-09-05T05:50:11.625Z,100834.84
2022-09-05T05:53:03.142Z,100837.25
2022-09-05T05:55:53.010Z,100835.91
2022-09-05T05:58:59.762Z,100836.97
2022-09-05T06:02:16.648Z,100838.06
2022-09-05T06:05:04.343Z,100826.22
2022-09-05T06:08:23.861Z,100821.94
2022-09-05T06:14:50.947Z,100818.69
2022-09-05T06:15:01.922Z,100836.50
2022-09-05T06:17:40.263Z,100827.63
2022-09-05T06:22:04.751Z,100831.66
2022-09-05T06:23:48.215Z,100824.66
2022-09-05T06:26:50.168Z,100831.13
2022-09-05T06:29:35.256Z,100834.09
2022-09-05T06:32:22.190Z,100835.94
2022-09-05T06:35:17.889Z,100839.19
2022-09-05T06:37:54.651Z,100849.44
2022-09-05T06:40:30.308Z,100835.41
2022-09-05T06:43:13.938Z,100848.88
2022-09-05T06:46:02.391Z,100854.53
2022-09-05T06:48:45.659Z,100859.13
2022-09-05T06:52:27.900Z,100855.63
2022-09-05T06:55:03.932Z,100853.16
2022-09-05T06:58:04.005Z,100856.41
2022-09-05T07:00:40.010Z,100855.03
2022-09-05T07:03:32.276Z,100852.88
2022-09-05T07:06:05.246Z,100851.50
2022-09-05T07:08:48.096Z,100857.44
2022-09-05T07:11:21.151Z,100857.94
2022-09-05T07:14:01.725Z,100867.06
2022-09-05T07:16:44.215Z,100863.81
2022-09-05T07:19:27.423Z,100874.81
2022-09-05T07:22:47.119Z,100878.28
2022-09-05T07:25:20.951Z,100885.31
2022-09-05T07:28:26.475Z,100888.19
2022-09-05T07:30:50.487Z,100891.94
2022-09-05T07:33:23.354Z,100885.16
2022-09-05T07:35:52.694Z,100889.94
2022-09-05T07:38:48.999Z,100893.66
2022-09-05T07:41:23.543Z,100886.03
2022-09-05T07:43:56.477Z,100891.91
2022-09-05T07:46:29.442Z,100895.34
2022-09-05T07:49:02.948Z,100894.44
2022-09-05T07:56:47.567Z,100901.38
2022-09-05T07:57:09.785Z,100900.41
2022-09-05T07:57:30.249Z,100906.47
2022-09-05T08:00:05.990Z,100903.66
2022-09-05T08:02:33.879Z,100900.56
2022-09-05T08:05:06.685Z,100909.31
2022-09-05T08:07:47.403Z,100886.03
2022-09-05T08:10:35.737Z,100907.88
2022-09-05T08:13:23.592Z,100896.38
2022-09-05T08:16:10.343Z,100901.06
2022-09-05T08:18:47.721Z,100908.16
2022-09-05T08:21:27.295Z,100910.41
2022-09-05T08:24:00.563Z,100899.91
2022-09-05T08:26:39.503Z,100909.56
2022-09-05T08:29:14.815Z,100907.16
2022-09-05T08:31:49.300Z,100907.78
2022-09-05T08:34:27.726Z,100907.91
2022-09-05T08:37:12.529Z,100906.03
2022-09-05T08:39:44.219Z,100903.16
2022-09-05T08:42:28.416Z,100905.06
2022-09-05T08:46:42.972Z,100907.31
2022-09-05T08:48:13.961Z,100904.88
2022-09-05T08:50:56.994Z,100897.84
2022-09-05T08:53:46.614Z,100903.56
2022-09-05T08:56:22.049Z,100901.16
2022-09-05T08:59:31.509Z,100905.25
2022-09-05T09:02:45.173Z,100900.38
2022-09-05T09:05:14.653Z,100893.59
2022-09-05T09:07:51.600Z,100896.38
2022-09-05T09:10:44.718Z,100892.31
2022-09-05T09:13:22.221Z,100883.44
2022-09-05T09:16:04.763Z,100881.06
2022-09-05T09:18:44.555Z,100884.66
2022-09-05T09:21:26.225Z,100876.53
2022-09-05T09:24:07.347Z,100876.09
2022-09-05T09:26:43.625Z,100877.56
2022-09-05T09:29:14.387Z,100877.41
2022-09-05T09:31:59.047Z,100874.78
2022-09-05T09:34:39.753Z,100884.06
2022-09-05T09:37:50.784Z,100879.31
2022-09-05T09:41:00.715Z,100878.06
2022-09-05T09:43:52.640Z,100878.09
2022-09-05T09:46:34.054Z,100874.09
2022-09-05T09:49:38.129Z,100864.84
2022-09-05T09:52:39.911Z,100861.03
2022-09-05T09:55:49.361Z,100861.53
2022-09-05T09:58:43.383Z,100856.56
2022-09-05T10:01:36.043Z,100852.75
2022-09-05T10:10:33.367Z,100852.75
2022-09-05T10:10:43.855Z,100843.13
2022-09-05T10:14:47.873Z,100832.22
2022-09-05T10:17:37.723Z,100828.97
2022-09-05T10:20:28.775Z,100835.53
2022-09-05T10:23:34.364Z,100835.84
2022-09-05T10:26:36.727Z,100832.13
2022-09-05T10:29:11.751Z,100838.53
2022-09-05T10:34:18.985Z,100846.41
2022-09-05T10:35:19.763Z,100839.50
2022-09-05T10:37:52.177Z,100832.44
2022-09-05T10:40:23.553Z,100831.63
2022-09-05T10:43:00.153Z,100831.97
2022-09-05T10:45:38.411Z,100825.38
2022-09-05T10:48:15.196Z,100827.44
2022-09-05T10:50:47.188Z,100830.69
2022-09-05T10:53:39.133Z,100840.63
2022-09-05T10:56:14.216Z,100831.44
2022-09-05T11:02:23.254Z,100829.66
2022-09-05T11:02:27.747Z,100819.53
2022-09-05T11:05:04.242Z,100822.22
2022-09-05T11:07:39.827Z,100816.69
2022-09-05T11:10:15.335Z,100814.38
2022-09-05T11:12:58.566Z,100808.56
2022-09-05T11:15:37.582Z,100812.84
2022-09-05T11:18:20.458Z,100810.84
2022-09-05T11:21:03.251Z,100801.81
2022-09-05T11:23:34.468Z,100802.06
2022-09-05T11:26:06.569Z,100798.31
2022-09-05T11:28:57.629Z,100801.00
2022-09-05T11:32:07.135Z,100799.69
2022-09-05T11:39:48.632Z,100798.00
2022-09-05T11:40:04.229Z,100790.41
2022-09-05T11:41:41.965Z,100793.84
2022-09-05T11:44:34.753Z,100789.28
2022-09-05T11:47:33.178Z,100791.34
2022-09-05T11:50:35.063Z,100800.00
2022-09-05T11:53:38.429Z,100796.16
2022-09-05T11:56:51.800Z,100788.16
2022-09-05T11:59:58.624Z,100791.34
2022-09-05T12:06:21.440Z,100777.59
2022-09-05T12:08:56.526Z,100779.97
2022-09-05T12:11:35.837Z,100780.13
2022-09-05T12:14:25.820Z,100772.34
2022-09-05T12:17:02.713Z,100769.97
2022-09-05T12:19:44.304Z,100767.59
2022-09-05T12:22:27.827Z,100764.84
2022-09-05T12:25:27.567Z,100773.38
2022-09-05T12:29:26.444Z,100768.38
2022-09-05T12:32:50.261Z,100771.44
2022-09-05T12:36:07.151Z,100769.03
2022-09-05T12:40:27.541Z,100768.69
2022-09-05T12:40:57.720Z,100755.81
2022-09-05T12:41:35.459Z,100786.81
2022-09-05T12:42:56.406Z,100759.47
2022-09-05T12:45:44.835Z,100753.81
2022-09-05T12:48:16.638Z,100755.88
2022-09-05T12:50:57.039Z,100750.19
2022-09-05T12:53:26.250Z,100746.31
2022-09-05T12:57:02.447Z,100749.16
2022-09-05T13:03:03.263Z,100742.19
2022-09-05T13:03:14.441Z,100742.19
2022-09-05T13:04:46.404Z,100738.66
2022-09-05T13:07:37.357Z,100735.00
2022-09-05T13:14:50.847Z,100744.13
2022-09-05T13:14:54.433Z,100732.63
2022-09-05T13:15:53.473Z,100733.25
2022-09-05T13:18:25.651Z,100725.72
2022-09-05T13:21:08.439Z,100724.59
2022-09-05T13:23:41.893Z,100710.44
2022-09-05T13:26:14.281Z,100711.16
2022-09-05T13:28:51.518Z,100711.94
2022-09-05T13:38:08.026Z,100716.28
2022-09-05T13:38:12.570Z,100703.75
2022-09-05T13:38:20.332Z,100705.69
2022-09-05T13:40:42.664Z,100694.72
2022-09-05T13:43:13.767Z,100704.97
2022-09-05T13:46:04.939Z,100694.84
2022-09-05T13:51:39.892Z,100697.50
2022-09-05T13:54:33.102Z,100692.47
2022-09-05T13:57:31.802Z,100684.75
2022-09-05T14:00:53.875Z,100678.47
2022-09-05T14:05:05.217Z,100677.69
2022-09-05T14:07:46.247Z,100674.47
2022-09-05T14:10:47.112Z,100677.91
2022-09-05T14:13:21.391Z,100677.75
2022-09-05T14:15:55.394Z,100671.47
2022-09-05T14:18:26.269Z,100670.56
2022-09-05T14:21:17.899Z,100652.44
2022-09-05T14:23:54.035Z,100656.44
2022-09-05T14:26:29.580Z,100641.25
2022-09-05T14:29:15.397Z,100645.28
2022-09-05T14:37:37.007Z,100635.66
2022-09-05T14:37:50.201Z,100624.41
2022-09-05T14:38:14.789Z,100612.09
2022-09-05T14:41:08.955Z,100610.59
2022-09-05T14:44:15.615Z,100617.72
2022-09-05T14:47:05.285Z,100610.94
2022-09-05T14:50:04.147Z,100617.44
2022-09-05T14:52:35.457Z,100616.06
2022-09-05T15:02:41.133Z,100621.66
2022-09-05T15:03:00.553Z,100650.84
2022-09-05T15:06:36.656Z,100695.53
2022-09-05T15:12:05.637Z,100718.75
2022-09-05T15:12:22.171Z,100794.75
2022-09-05T15:14:58.425Z,100819.16
2022-09-05T15:17:27.787Z,100819.53
2022-09-05T15:20:05.697Z,100822.09
2022-09-05T15:22:37.704Z,100822.81
2022-09-05T15:25:18.640Z,100799.22
2022-09-05T15:27:49.491Z,100761.34
2022-09-05T15:30:21.358Z,100765.72
2022-09-05T15:32:50.816Z,100756.97
2022-09-05T15:35:35.353Z,100749.50
2022-09-05T15:38:25.746Z,100749.09
2022-09-05T15:41:08.327Z,100720.88
2022-09-05T15:43:40.191Z,100702.03
2022-09-05T15:46:09.036Z,100681.16
2022-09-05T15:48:40.797Z,100688.94
2022-09-05T15:51:19.822Z,100696.22
2022-09-05T15:53:52.529Z,100703.16
2022-09-05T15:56:25.172Z,100709.63
2022-09-05T15:58:58.111Z,100696.69
2022-09-05T16:01:48.628Z,100671.69
2022-09-05T16:08:45.786Z,100660.59
2022-09-05T16:10:44.906Z,100645.56
2022-09-05T16:10:45.443Z,100655.41
2022-09-05T16:12:50.668Z,100645.16
2022-09-05T16:19:56.871Z,100640.84
2022-09-05T16:23:13.357Z,100647.50
2022-09-05T16:23:26.563Z,100648.50
2022-09-05T16:24:05.361Z,100639.84
2022-09-05T16:26:38.527Z,100634.72
2022-09-05T16:29:12.498Z,100638.56
2022-09-05T16:31:48.586Z,100631.69
2022-09-05T16:34:22.707Z,100621.47
2022-09-05T16:37:08.989Z,100619.56
2022-09-05T16:39:41.313Z,100614.44
2022-09-05T16:42:16.102Z,100617.66
2022-09-05T16:44:50.433Z,100614.94
2022-09-05T16:47:25.873Z,100618.44
2022-09-05T16:50:02.594Z,100604.56
2022-09-05T16:52:38.003Z,100602.97
2022-09-05T16:55:28.921Z,100608.41
2022-09-05T16:58:01.855Z,100602.97
2022-09-05T17:00:47.645Z,100602.97
2022-09-05T17:03:28.567Z,100615.16
2022-09-05T17:06:06.816Z,100625.50
2022-09-05T17:08:36.999Z,100623.69
2022-09-05T17:11:13.850Z,100621.94
2022-09-05T17:13:57.856Z,100609.75
2022-09-05T17:16:31.567Z,100614.06
2022-09-05T17:19:02.638Z,100610.88
2022-09-05T17:21:59.067Z,100617.09
2022-09-05T17:29:15.419Z,100617.69
2022-09-05T17:29:34.290Z,100616.59
2022-09-05T17:32:56.199Z,100610.47
2022-09-05T17:35:42.951Z,100609.66
2022-09-05T17:38:39.887Z,100606.47
2022-09-05T17:41:50.807Z,100606.25
2022-09-05T17:44:25.453Z,100608.47
2022-09-05T17:47:05.449Z,100599.00
2022-09-05T17:49:45.415Z,100600.44
2022-09-05T17:52:24.581Z,100593.69
2022-09-05T17:54:54.562Z,100582.66
2022-09-05T17:57:35.120Z,100579.97
2022-09-05T18:00:32.220Z,100566.78
2022-09-05T18:03:00.745Z,100563.59
2022-09-05T18:06:01.267Z,100549.53
2022-09-05T18:08:53.008Z,100554.78
2022-09-05T18:11:44.893Z,100557.28
2022-09-05T18:14:46.800Z,100561.69
2022-09-05T18:18:00.027Z,100563.38
2022-09-05T18:20:39.463Z,100565.13
2022-09-05T18:23:18.117Z,100572.22
2022-09-05T18:26:06.251Z,100583.16
2022-09-05T18:28:40.910Z,100588.16
2022-09-05T18:31:45.401Z,100606.13
2022-09-05T18:34:46.466Z,100613.78
2022-09-05T18:38:01.965Z,100629.81
2022-09-05T18:40:38.948Z,100650.28
2022-09-05T18:43:23.336Z,100691.47
2022-09-05T18:45:55.916Z,100747.91
2022-09-05T18:48:29.951Z,100747.44
2022-09-05T18:51:15.225Z,100731.34
2022-09-05T18:53:47.387Z,100727.41
2022-09-05T18:57:02.986Z,100733.13
2022-09-05T18:59:32.011Z,100739.19
2022-09-05T19:02:06.005Z,100737.06
2022-09-05T19:04:49.364Z,100733.16
2022-09-05T19:07:22.977Z,100737.22
2022-09-05T19:10:07.935Z,100721.06
2022-09-05T19:12:55.266Z,100701.38
2022-09-05T19:15:29.807Z,100694.13
2022-09-05T19:18:03.717Z,100689.31
2022-09-05T19:21:11.900Z,100690.03
2022-09-05T19:23:44.620Z,100698.19
2022-09-05T19:26:13.112Z,100704.75
2022-09-05T19:36:45.402Z,100676.13
2022-09-05T19:36:48.899Z,100690.25
2022-09-05T19:36:53.409Z,100698.38
2022-09-05T19:37:29.084Z,100688.25
2022-09-05T19:46:06.828Z,100683.50
2022-09-05T19:47:34.475Z,100674.44
2022-09-05T19:47:38.726Z,100678.38
2022-09-05T19:48:35.315Z,100675.69
2022-09-05T19:51:16.464Z,100667.75
2022-09-05T19:53:47.489Z,100672.13
2022-09-05T19:56:17.238Z,100672.19
2022-09-05T19:58:45.774Z,100675.00
2022-09-05T20:01:16.703Z,100677.16
2022-09-05T20:03:51.181Z,100677.75
2022-09-05T20:06:30.084Z,100683.19
2022-09-05T20:09:11.262Z,100671.44
2022-09-05T20:11:46.207Z,100670.06
2022-09-05T20:14:20.866Z,100675.75
2022-09-05T20:16:50.067Z,100677.41
2022-09-05T20:19:32.086Z,100678.97
2022-09-05T20:22:45.218Z,100683.31
2022-09-05T20:24:55.400Z,100674.66
2022-09-05T20:27:27.721Z,100684.91
2022-09-05T20:29:58.799Z,100678.94
2022-09-05T20:32:38.858Z,100696.44
2022-09-05T20:38:47.843Z,100696.38
2022-09-05T20:43:09.482Z,100710.09
2022-09-05T20:43:24.417Z,100714.13
2022-09-05T20:43:57.899Z,100718.44
2022-09-05T20:51:33.147Z,100702.03
2022-09-05T20:54:05.886Z,100706.63
2022-09-05T20:54:28.316Z,100723.63
2022-09-05T20:55:38.815Z,100759.75
2022-09-05T20:57:50.800Z,100780.78
2022-09-05T21:00:22.549Z,100780.25
2022-09-05T21:02:54.931Z,100730.63
2022-09-05T21:05:30.139Z,100660.13
2022-09-05T21:08:31.471Z,100599.78
2022-09-05T21:11:01.491Z,100602.34
2022-09-05T21:13:32.242Z,100617.47
2022-09-05T21:16:01.067Z,100627.16
2022-09-05T21:18:33.335Z,100625.31
2022-09-05T21:21:03.283Z,100617.28
2022-09-05T21:24:15.891Z,100615.09
2022-09-05T21:26:47.976Z,100618.03
2022-09-05T21:29:18.366Z,100604.81
2022-09-05T21:31:54.610Z,100603.69
2022-09-05T21:34:28.529Z,100604.47
2022-09-05T21:37:06.868Z,100605.31
2022-09-05T21:39:51.957Z,100616.88
2022-09-05T21:45:08.494Z,100636.31
2022-09-05T21:47:49.162Z,100657.56
2022-09-05T21:48:08.454Z,100725.50
2022-09-05T21:50:40.891Z,100758.88
2022-09-05T21:54:28.046Z,100762.13
2022-09-05T21:59:24.589Z,100720.63
2022-09-05T21:59:29.711Z,100731.69
2022-09-05T22:01:52.508Z,100744.34
2022-09-05T22:04:21.942Z,100760.72
2022-09-05T22:06:50.834Z,100765.88
2022-09-05T22:09:20.212Z,100770.97
2022-09-05T22:11:51.520Z,100768.53
2022-09-05T22:14:19.832Z,100772.84
2022-09-05T22:16:50.521Z,100770.41
2022-09-05T22:19:36.831Z,100769.84
2022-09-05T22:22:16.042Z,100762.03
2022-09-05T22:24:48.741Z,100767.94
2022-09-05T22:27:20.149Z,100763.63
2022-09-05T22:29:50.585Z,100761.22
2022-09-05T22:32:33.722Z,100754.22
2022-09-05T22:35:18.525Z,100748.00
2022-09-05T22:37:59.725Z,100724.84
2022-09-05T22:40:29.036Z,100721.63
2022-09-05T22:42:59.756Z,100723.22
2022-09-05T22:45:28.391Z,100709.22
2022-09-05T22:47:56.622Z,100701.38
2022-09-05T22:50:24.663Z,100687.09
2022-09-05T22:52:52.528Z,100680.63
2022-09-05T22:55:20.510Z,100686.84
2022-09-05T22:57:48.364Z,100675.25
2022-09-05T23:00:17.853Z,100655.84
2022-09-05T23:02:50.207Z,100638.88
2022-09-05T23:05:20.405Z,100621.91
2022-09-05T23:07:48.208Z,100584.16
2022-09-05T23:10:16.285Z,100571.78
2022-09-05T23:12:44.353Z,100559.34
2022-09-05T23:15:12.517Z,100557.47
2022-09-05T23:17:42.076Z,100553.97
2022-09-05T23:20:10.972Z,100530.81
2022-09-05T23:22:39.333Z,100533.50
2022-09-05T23:25:08.517Z,100543.75
2022-09-05T23:27:36.940Z,100537.56
2022-09-05T23:30:06.139Z,100524.34
2022-09-05T23:32:34.831Z,100522.75
2022-09-05T23:35:04.138Z,100531.94
2022-09-05T23:37:32.235Z,100531.94
2022-09-05T23:40:00.110Z,100532.22
2022-09-05T23:42:28.231Z,100530.56
2022-09-05T23:44:56.298Z,100537.06
2022-09-05T23:47:24.129Z,100543.25
2022-09-05T23:49:51.881Z,100538.94
2022-09-05T23:52:21.276Z,100533.56
2022-09-05T23:54:49.074Z,100535.47
2022-09-05T23:57:22.471Z,100532.47
2022-09-05T23:59:52.512Z,100538.16
